Date,TemperatureHighF,TemperatureAvgF,TemperatureLowF,DewpointHighF,DewpointAvgF,DewpointLowF,HumidityHigh,HumidityAvg,HumidityLow,PressureMaxIn,PressureMinIn,WindSpeedMaxMPH,WindSpeedAvgMPH,GustSpeedMaxMPH,PrecipitationSumIn
2014-1-1,64,42,25,26,23,20,85,52,21,30.14,29.89,8,2,0,0.00
2014-1-2,58,46,35,30,27,22,68,48,30,30.29,30.09,14,5,0,0.00
2014-1-3,62,43,27,28,25,21,80,53,27,30.09,29.82,7,2,0,0.00
2014-1-4,68,50,34,29,24,21,73,41,19,29.84,29.70,16,4,0,0.00
2014-1-5,53,43,29,24,10,2,45,28,14,30.12,29.82,11,2,0,0.00
2014-1-6,49,35,21,14,8,3,56,35,18,30.32,30.12,12,3,0,0.00
2014-1-7,55,38,19,24,14,4,56,38,21,30.20,29.95,6,2,0,0.00
2014-1-8,68,49,37,22,19,14,53,33,14,29.98,29.84,11,2,0,0.00
2014-1-9,64,45,28,28,19,14,58,38,18,30.00,29.81,7,1,0,0.00
2014-1-10,66,51,34,31,23,18,79,39,17,29.98,29.79,18,4,0,0.00
2014-1-11,66,46,30,24,21,19,69,40,18,30.14,29.94,6,1,0,0.00
2014-1-12,70,53,35,27,22,20,59,33,15,29.99,29.78,16,5,0,0.00
2014-1-13,62,46,30,20,11,4,49,26,10,30.21,30.00,10,3,0,0.00
2014-1-14,64,43,27,18,13,7,47,31,15,30.26,30.09,6,1,0,0.00
2014-1-15,63,43,26,19,14,12,56,34,15,30.31,30.03,6,2,0,0.00
2014-1-16,65,45,25,20,15,10,56,33,16,30.09,29.97,5,2,0,0.00
2014-1-17,62,44,27,23,20,16,67,39,20,30.19,30.02,5,1,0,0.00
2014-1-18,66,44,26,21,17,14,67,39,15,30.16,30.02,4,1,0,0.00
2014-1-19,65,45,28,21,17,14,57,35,17,30.22,30.02,5,1,0,0.00
2014-1-20,70,57,31,19,16,11,53,21,12,30.23,29.99,14,4,0,0.00
2014-1-21,64,52,39,22,18,15,47,28,18,30.32,30.08,18,4,0,0.00
2014-1-22,70,48,35,21,19,17,55,34,14,30.07,29.76,5,1,0,0.00
2014-1-23,52,43,31,24,18,12,48,37,26,30.40,29.80,22,10,0,0.01
2014-1-24,50,37,28,20,12,2,47,35,29,30.46,30.24,12,3,0,0.00
2014-1-25,63,48,36,21,19,18,49,33,19,30.26,29.94,7,2,0,0.00
2014-1-26,73,54,35,33,26,19,52,34,19,29.95,29.73,18,4,0,0.00
2014-1-27,58,51,45,31,27,24,51,40,30,29.99,29.80,18,5,0,0.00
2014-1-28,53,42,33,28,18,6,69,41,26,30.08,29.85,18,7,0,0.00
2014-1-29,61,42,28,19,12,5,49,30,18,30.11,29.85,12,3,0,0.00
2014-1-30,76,55,32,29,22,16,55,31,13,29.86,29.68,19,3,0,0.00
2014-1-31,72,60,48,36,32,27,52,36,23,29.79,29.61,25,7,0,0.00
2014-2-1,68,57,46,37,33,31,57,41,28,29.75,29.60,23,6,0,0.00
2014-2-2,59,49,41,38,30,22,67,50,24,29.93,29.74,9,4,0,0.00
2014-2-3,63,50,39,36,30,12,75,51,19,29.86,29.52,14,7,0,0.00
2014-2-4,56,45,36,31,23,18,75,46,23,29.94,29.70,18,6,0,0.00
2014-2-5,44,34,29,25,19,16,64,55,42,30.03,29.86,20,6,0,0.00
2014-2-6,44,35,24,22,18,15,73,52,39,30.09,29.84,18,7,0,0.00
2014-2-7,63,48,36,32,26,20,53,42,28,29.98,29.85,16,4,0,0.00
2014-2-8,70,50,32,30,27,24,76,44,20,30.07,29.96,12,2,0,0.00
2014-2-9,76,59,38,37,28,21,52,32,21,30.02,29.79,19,5,0,0.00
2014-2-10,78,59,39,32,28,24,60,34,15,29.90,29.69,19,4,0,0.00
2014-2-11,56,47,35,29,28,26,69,49,35,30.00,29.74,15,6,0,0.00
2014-2-12,68,49,29,29,24,18,79,42,18,30.11,29.90,6,2,0,0.00
2014-2-13,79,57,37,27,22,17,46,27,14,29.99,29.80,12,3,0,0.00
2014-2-14,82,62,41,28,24,21,50,26,12,29.99,29.83,8,2,0,0.00
2014-2-15,85,62,43,27,23,18,46,26,9,30.02,29.86,11,2,0,0.00
2014-2-16,84,63,44,26,20,13,42,22,8,29.99,29.82,14,3,0,0.00
2014-2-17,75,60,45,27,21,17,43,23,13,30.07,29.90,8,2,0,0.00
2014-2-18,83,59,38,28,22,17,57,29,9,29.96,29.78,12,2,0,0.00
2014-2-19,80,60,42,26,20,13,52,24,10,29.83,29.61,14,3,0,0.00
2014-2-20,70,56,40,21,14,7,37,20,10,29.96,29.67,14,4,0,0.00
2014-2-21,71,52,34,15,7,2,38,19,9,30.00,29.78,9,2,0,0.00
2014-2-22,77,57,35,18,12,6,47,19,7,29.88,29.72,10,2,0,0.00
2014-2-23,77,63,45,30,18,12,31,19,10,29.97,29.84,13,2,0,0.00
2014-2-24,78,63,45,32,27,22,50,27,13,29.98,29.81,8,2,0,0.00
2014-2-25,75,62,46,37,29,25,53,31,17,29.95,29.78,19,4,0,0.00
2014-2-26,71,59,50,38,35,31,59,42,28,29.96,29.76,17,4,0,0.00
2014-2-27,78,63,44,34,30,26,59,32,16,29.86,29.62,19,5,0,0.00
2014-2-28,80,65,47,38,32,24,63,32,17,29.85,29.67,16,4,0,0.00
2014-3-1,78,62,50,41,32,24,54,34,16,29.88,29.70,19,6,0,0.00
2014-3-2,66,55,47,49,41,34,99,64,34,29.99,29.82,17,5,0,0.28
2014-3-3,64,52,44,40,35,31,86,54,32,30.03,29.86,17,5,0,0.00
2014-3-4,66,53,37,40,35,31,87,54,32,29.93,29.73,7,2,0,0.00
2014-3-5,73,59,41,39,34,30,82,45,21,30.04,29.78,10,4,0,0.00
2014-3-6,73,59,48,36,33,26,58,39,18,30.09,29.78,11,4,0,0.00
2014-3-7,80,62,43,38,33,27,75,38,17,29.79,29.61,15,3,0,0.00
2014-3-8,66,56,48,36,32,27,58,40,28,30.15,29.76,24,8,0,0.00
2014-3-9,66,53,44,30,26,23,52,36,22,30.22,30.03,14,4,0,0.00
2014-3-10,74,56,36,35,30,26,82,43,17,30.09,29.78,11,3,0,0.00
2014-3-11,78,63,44,29,24,16,51,26,12,29.82,29.68,14,6,0,0.00
2014-3-12,60,53,44,27,22,18,44,30,20,30.18,29.83,22,9,0,0.00
2014-3-13,70,56,46,32,24,19,41,29,20,30.11,29.74,13,5,0,0.00
2014-3-14,76,61,43,36,31,27,60,34,18,29.90,29.75,15,4,0,0.00
2014-3-15,73,58,45,36,31,12,61,38,16,29.93,29.68,21,6,0,0.00
2014-3-16,66,53,39,32,23,12,71,35,13,30.17,29.96,10,3,0,0.00
2014-3-17,79,60,39,19,16,12,39,20,9,30.03,29.49,15,4,0,0.00
2014-3-18,80,62,42,20,15,9,36,18,7,29.78,29.54,23,4,0,0.00
2014-3-19,72,58,45,23,18,2,40,22,11,30.04,29.78,17,5,0,0.00
2014-3-20,81,62,40,25,20,12,47,22,9,30.03,29.76,11,3,0,0.00
2014-3-21,81,68,56,26,17,11,30,15,8,29.85,29.70,15,4,0,0.00
2014-3-22,81,64,47,28,20,15,41,20,10,29.92,29.75,14,3,0,0.00
2014-3-23,69,57,42,32,27,20,51,33,22,30.07,29.88,16,6,0,0.00
2014-3-24,82,62,42,31,27,21,55,29,12,30.00,29.86,9,3,0,0.00
2014-3-25,73,62,50,46,31,22,64,32,21,29.97,29.70,22,8,0,0.15
2014-3-26,79,64,45,47,31,13,95,41,9,29.78,29.57,21,7,0,0.00
2014-3-27,78,66,52,30,23,16,35,20,12,29.77,29.63,24,7,0,0.00
2014-3-28,77,62,47,32,25,16,45,26,12,30.00,29.77,13,4,0,0.00
2014-3-29,80,62,40,30,25,21,53,27,13,30.12,29.86,12,3,0,0.00
2014-3-30,86,71,58,32,26,18,33,20,9,29.91,29.62,17,6,0,0.00
2014-3-31,82,66,46,26,20,14,42,19,8,29.90,29.73,17,4,0,0.00
2014-4-1,84,66,46,28,20,12,38,20,8,29.84,29.65,16,4,0,0.00
2014-4-2,80,67,49,29,16,6,33,16,8,29.72,29.56,29,8,0,0.09
2014-4-3,70,58,47,26,16,6,39,22,8,29.92,29.65,19,7,0,0.00
2014-4-4,73,59,42,24,20,13,37,23,13,29.97,29.71,18,6,0,0.00
2014-4-5,74,64,53,33,21,10,34,20,9,29.73,29.60,16,5,0,0.00
2014-4-6,75,60,41,27,21,16,49,25,13,29.78,29.65,14,5,0,0.02
2014-4-7,76,60,40,27,19,13,50,23,10,30.01,29.76,20,5,0,0.00
2014-4-8,81,62,40,28,22,15,50,24,10,30.19,30.01,10,3,0,0.00
2014-4-9,88,67,41,30,20,8,53,22,5,30.07,29.84,8,2,0,0.00
2014-4-10,91,69,46,28,13,-5,39,16,3,29.98,29.79,14,3,0,0.00
2014-4-11,88,68,48,30,19,7,39,18,5,29.95,29.78,12,2,0,0.00
2014-4-12,83,71,60,44,30,20,41,24,11,29.81,29.60,23,7,0,0.01
2014-4-13,83,69,50,40,23,13,53,22,8,29.73,29.57,19,6,0,0.00
2014-4-14,67,57,48,32,25,17,55,30,17,30.13,29.69,16,7,0,0.00
2014-4-15,73,58,44,19,15,5,34,20,9,30.14,29.74,13,6,0,0.00
2014-4-16,88,67,42,22,14,6,42,16,5,29.74,29.53,12,3,0,0.00
2014-4-17,85,70,47,31,20,5,28,15,10,29.92,29.69,14,4,0,0.00
2014-4-18,84,71,62,44,38,31,46,31,19,29.98,29.75,17,8,0,0.00
2014-4-19,80,66,55,53,48,38,84,55,28,29.97,29.80,16,6,0,0.43
2014-4-20,83,65,47,51,44,36,97,53,20,30.01,29.88,10,3,0,0.00
2014-4-21,92,70,49,44,39,30,73,39,12,30.02,29.88,9,1,0,0.00
2014-4-22,92,78,61,48,40,29,45,27,13,29.95,29.61,15,6,0,0.00
2014-4-23,87,76,60,33,27,20,31,18,9,29.77,29.59,22,6,0,0.00
2014-4-24,89,70,51,29,20,15,28,16,8,29.96,29.74,7,2,0,0.00
2014-4-25,90,74,53,31,24,19,34,17,9,29.87,29.65,13,4,0,0.00
2014-4-26,85,71,58,36,24,17,42,20,9,29.69,29.46,30,9,0,0.54
2014-4-27,75,63,52,34,25,20,46,26,14,29.73,29.59,20,10,0,0.04
2014-4-28,82,69,54,27,24,22,31,19,12,29.82,29.62,20,8,0,0.00
2014-4-29,73,63,51,24,10,2,33,14,8,29.99,29.78,14,5,0,0.00
2014-4-30,69,61,52,26,21,6,30,22,14,30.04,29.89,24,14,0,0.05
2014-5-1,68,61,57,36,30,22,41,31,24,30.07,29.92,24,10,0,0.07
2014-5-2,84,64,44,36,30,22,69,32,11,30.09,29.90,8,3,0,0.00
2014-5-3,92,69,45,32,24,16,54,23,7,30.05,29.89,13,2,0,0.00
2014-5-4,94,73,47,32,22,15,49,19,6,29.98,29.81,14,3,0,0.00
2014-5-5,91,75,50,35,26,16,46,19,8,29.94,29.74,20,4,0,0.00
2014-5-6,88,75,58,32,26,17,24,17,11,29.80,29.58,21,7,0,0.08
2014-5-7,85,72,55,37,28,10,46,22,8,29.74,29.61,28,8,0,0.09
2014-5-13,69,63,58,28,26,24,28,24,21,30.27,30.10,16,7,0,0.00
2014-5-14,73,62,49,26,21,15,35,22,12,30.34,30.12,13,5,0,0.00
2014-5-15,80,63,54,25,16,12,29,17,11,30.22,30.10,10,4,0,0.00
2014-5-23,79,75,70,44,40,35,39,29,22,29.80,29.76,9,5,0,0.00
2014-5-24,88,74,55,43,31,18,46,23,9,29.90,29.71,17,4,0,0.00
2014-5-25,87,71,50,39,32,26,49,27,14,29.92,29.78,9,2,0,0.00
2014-5-26,90,75,57,46,42,37,54,33,18,29.95,29.81,16,4,0,0.00
2014-5-27,96,76,58,45,42,33,52,33,11,29.96,29.83,9,2,0,0.00
2014-6-4,110,90,78,39,21,-100,22,10,7,29.71,29.62,12,-86,0,0.00
2014-6-5,112,88,64,38,29,20,33,15,5,29.77,29.59,7,2,0,0.00
2014-6-6,109,88,66,36,30,21,32,14,6,29.73,29.55,14,3,0,0.00
2014-6-7,106,87,64,41,26,10,29,13,5,29.77,29.61,9,2,0,0.00
2014-6-8,102,85,66,59,41,25,52,25,8,29.79,29.59,10,4,0,0.00
2014-6-9,103,83,63,40,29,17,36,17,5,29.86,29.71,12,3,0,0.00
2014-6-10,106,86,75,49,42,38,30,23,11,29.88,29.69,14,6,0,0.00
2014-6-11,104,90,71,42,37,32,33,17,10,29.83,29.66,20,4,0,0.00
2014-6-12,102,86,71,51,42,35,40,23,11,29.91,29.77,18,4,0,0.00
2014-6-13,100,86,76,62,53,40,59,35,16,29.90,29.72,37,8,0,0.37
2014-6-14,96,83,73,52,50,43,45,32,21,29.83,29.73,14,5,0,0.00
2014-6-17,100,91,80,49,45,38,33,22,13,29.84,29.70,18,7,0,0.00
2014-6-18,99,85,70,53,48,43,44,29,18,29.86,29.73,14,3,0,0.00
2014-6-19,99,83,64,52,46,41,56,31,14,29.92,29.76,16,2,0,0.00
2014-6-20,97,84,70,56,51,46,51,34,20,29.93,29.77,20,6,0,0.00
2014-6-21,108,87,73,62,54,40,59,37,10,29.86,29.68,11,5,0,0.00
2014-6-22,107,96,79,47,41,35,27,16,11,29.81,29.64,11,5,0,0.00
2014-6-23,101,88,67,47,40,36,40,21,12,29.88,29.72,14,3,0,0.00
2014-6-24,102,88,75,58,50,42,55,30,14,29.95,29.76,20,5,0,0.13
2014-6-25,103,89,75,57,48,39,45,26,12,29.90,29.71,12,4,0,0.00
2014-6-26,104,91,78,55,48,41,43,25,13,29.85,29.62,13,5,0,0.00
2014-6-27,102,88,74,52,41,29,40,22,8,29.76,29.59,18,5,0,0.00
2014-6-28,104,88,68,47,40,34,38,20,12,29.80,29.67,13,4,0,0.00
2014-6-29,108,91,75,48,40,34,35,18,10,29.88,29.72,8,3,0,0.00
2014-6-30,107,91,70,51,43,34,43,22,10,29.84,29.63,15,4,0,0.00
2014-7-1,101,86,71,63,48,39,75,29,15,29.93,29.69,19,5,0,0.18
2014-7-2,92,81,69,60,57,52,72,47,26,30.00,29.84,16,7,0,0.01
2014-7-3,93,83,74,60,57,53,56,42,26,30.03,29.88,19,7,0,0.00
2014-7-4,95,86,71,60,54,49,66,35,22,30.07,29.91,11,5,0,0.00
2014-7-5,102,88,75,57,53,49,53,32,18,30.04,29.85,11,4,0,0.00
2014-7-6,94,85,74,62,56,52,67,39,25,29.97,29.81,13,4,0,0.00
2014-7-7,95,80,67,64,60,54,92,54,27,29.97,29.78,8,3,0,0.00
2014-7-8,98,86,72,61,56,47,61,38,20,29.95,29.79,13,4,0,0.00
2014-7-9,98,87,76,60,54,48,53,34,20,29.95,29.76,14,5,0,0.00
2014-7-10,99,88,77,60,55,48,54,35,21,29.91,29.73,12,6,0,0.00
2014-7-11,99,87,78,59,55,46,49,35,21,29.91,29.76,19,6,0,0.00
2014-7-12,96,84,76,62,59,54,57,44,27,29.98,29.89,23,7,0,0.00
2014-7-13,95,88,71,62,59,56,66,39,30,30.03,29.87,10,4,0,0.00
2014-7-14,97,83,72,62,58,55,64,45,25,30.02,29.88,16,4,0,0.00
2014-7-15,95,80,70,61,59,54,71,50,26,30.06,29.83,10,4,0,0.00
2014-7-16,96,83,70,67,60,56,83,49,27,29.94,29.71,28,6,0,0.49
2014-7-17,101,86,71,66,58,52,84,44,21,29.84,29.69,9,3,0,0.00
2014-7-18,103,86,69,62,55,46,72,38,17,29.91,29.74,10,3,0,0.00
2014-7-19,104,90,75,60,52,46,55,31,15,29.92,29.75,15,4,0,0.00
2014-7-20,106,94,80,58,54,48,44,27,16,29.92,29.75,8,4,0,0.00
2014-7-21,105,96,75,63,55,50,59,27,18,29.97,29.82,9,4,0,0.07
2014-7-22,103,88,74,62,59,52,62,40,19,30.06,29.86,24,4,0,0.00
2014-7-23,95,81,70,66,63,55,83,59,27,30.09,30.03,11,4,0,0.02
2014-7-24,92,89,87,57,56,55,35,34,29,30.05,30.01,10,6,0,0.00
2014-7-25,101,94,80,56,51,47,44,24,17,29.98,29.78,10,3,0,0.00
2014-7-26,104,91,73,56,50,44,43,26,16,29.91,29.74,9,3,0,0.00
2014-7-27,99,90,77,59,54,49,48,30,19,29.99,29.84,11,4,0,0.00
2014-7-28,96,84,72,67,61,56,86,48,31,30.11,29.93,15,4,0,0.05
2014-7-29,92,80,71,68,65,60,89,63,37,30.06,29.89,10,3,0,0.01
2014-7-30,107,94,78,65,56,50,66,30,17,29.93,29.79,17,4,0,0.00
2014-7-31,95,82,74,65,61,57,68,51,29,30.05,29.85,13,5,0,0.00
2014-8-1,80,72,66,68,65,60,98,80,53,30.05,29.92,14,4,0,0.68
2014-8-2,83,74,67,66,62,57,89,67,52,30.05,29.93,17,8,0,0.00
2014-8-3,88,79,70,63,59,55,71,52,39,30.06,29.93,13,4,0,0.00
2014-8-4,91,80,69,68,61,55,93,54,30,30.02,29.90,11,5,0,0.54
2014-8-5,95,84,72,68,63,60,88,51,31,30.04,29.90,9,3,0,0.00
2014-8-6,97,82,68,65,61,57,86,52,28,29.98,29.82,7,2,0,0.00
2014-8-7,95,82,71,66,62,57,81,55,31,29.94,29.79,18,5,0,0.00
2014-8-8,93,80,71,65,62,59,76,57,36,29.94,29.81,9,2,0,0.00
2014-8-9,96,78,69,66,63,58,89,62,32,29.99,29.86,8,2,0,0.05
2014-8-10,91,77,70,65,60,57,77,57,37,29.99,29.88,17,4,0,0.01
2014-8-11,87,82,75,64,60,57,58,48,37,30.08,29.95,20,8,0,0.00
2014-8-12,91,81,74,65,62,59,68,52,39,30.09,29.93,18,6,0,0.00
2014-8-13,92,82,71,70,62,60,77,52,37,30.03,29.89,9,4,0,0.03
2014-8-14,93,79,69,68,66,62,89,67,39,29.99,29.87,11,3,0,0.16
2014-8-15,96,81,68,66,62,56,84,55,27,29.98,29.82,11,4,0,0.00
2014-8-16,102,83,71,68,60,50,81,49,21,29.98,29.82,19,3,0,0.00
2014-8-17,96,79,68,65,61,55,88,57,25,29.98,29.79,14,3,0,0.03
2014-8-18,96,83,69,64,59,52,80,48,25,29.90,29.73,13,4,0,0.00
2014-8-19,94,79,68,64,61,58,77,57,32,29.85,29.70,21,4,0,0.00
2014-8-20,95,79,66,62,57,49,78,51,26,29.89,29.75,10,3,0,0.00
2014-8-21,96,87,66,60,56,52,67,36,25,29.94,29.80,10,4,0,0.00
2014-8-22,83,73,66,66,64,59,98,74,51,29.99,29.86,10,3,0,0.35
2014-8-23,93,79,64,64,60,56,90,57,30,29.95,29.79,8,2,0,0.00
2014-8-24,96,82,68,65,60,55,83,50,28,29.90,29.76,9,2,0,0.00
2014-8-25,87,77,71,64,60,57,73,55,37,29.98,29.84,10,3,0,0.00
2014-8-26,96,81,70,64,61,57,74,53,29,30.04,29.86,16,5,0,0.00
2014-8-27,90,78,69,66,63,60,83,63,40,30.05,29.90,8,2,0,0.01
2014-8-28,97,80,65,62,57,49,83,50,21,29.97,29.79,7,2,0,0.00
2014-8-29,97,81,62,56,51,46,71,40,19,29.89,29.76,8,2,0,0.00
2014-8-30,98,85,70,59,50,43,54,32,16,29.92,29.78,9,2,0,0.00
2014-8-31,104,84,68,55,50,44,56,34,15,29.89,29.72,8,2,0,0.00
2014-9-1,102,84,65,53,46,38,56,30,12,29.88,29.74,17,2,0,0.00
2014-9-2,109,84,62,50,44,34,62,30,9,29.87,29.70,6,1,0,0.00
2014-9-3,101,85,65,56,47,36,51,30,11,29.82,29.66,10,3,0,0.00
2014-9-4,93,84,70,64,59,54,82,43,30,29.87,29.68,15,6,0,0.05
2014-9-5,89,74,66,68,65,63,97,76,45,29.95,29.84,10,3,0,0.55
2014-9-6,86,82,77,62,60,59,60,48,44,30.03,29.92,17,10,0,0.02
2014-9-7,70,68,68,62,61,60,82,77,72,30.01,29.99,8,5,0,0.00
2014-9-8,91,84,74,66,63,60,72,51,38,29.95,29.79,8,3,0,0.01
2014-9-9,93,80,69,65,61,49,85,56,26,29.92,29.75,12,3,0,0.00
2014-9-10,87,73,63,61,57,54,81,59,36,29.89,29.82,5,1,0,0.00
2014-9-11,85,76,66,63,57,51,72,52,37,29.93,29.84,11,3,0,0.00
2014-9-12,80,71,61,63,59,50,82,67,55,30.05,29.90,22,7,0,0.03
2014-9-13,77,66,58,56,51,47,67,60,47,30.14,29.97,18,7,0,0.00
2014-9-14,84,77,69,60,59,57,65,54,44,30.05,29.88,16,7,0,0.00
2014-9-15,81,74,66,66,61,59,83,66,53,30.03,29.94,11,4,0,0.01
2014-9-16,83,75,66,69,65,62,98,73,54,30.04,29.88,9,4,0,0.54
2014-9-17,87,76,68,67,64,62,97,68,48,29.91,29.73,14,5,0,1.19
2014-9-18,76,69,65,68,66,64,99,92,74,29.83,29.73,8,2,0,1.07